createdAt,value
2023-01-15T00:00:32.990Z,88164.88
2023-01-15T00:03:18.202Z,88152.78
2023-01-15T00:06:02.967Z,88154.50
2023-01-15T00:08:47.640Z,88154.50
2023-01-15T00:11:32.371Z,88148.28
2023-01-15T00:14:17.017Z,88138.47
2023-01-15T00:17:01.894Z,88134.16
2023-01-15T00:19:46.703Z,88134.16
2023-01-15T00:22:31.559Z,88125.72
2023-01-15T00:25:16.248Z,88109.28
2023-01-15T00:28:01.946Z,88107.22
2023-01-15T00:30:46.883Z,88116.59
2023-01-15T00:33:31.519Z,88116.28
2023-01-15T00:36:16.252Z,88106.75
2023-01-15T00:39:00.919Z,88100.34
2023-01-15T00:41:45.638Z,88099.50
2023-01-15T00:44:30.320Z,88105.94
2023-01-15T00:47:15.095Z,88108.00
2023-01-15T00:49:59.796Z,88107.28
2023-01-15T00:52:44.672Z,88108.94
2023-01-15T00:55:29.456Z,88106.41
2023-01-15T00:58:14.209Z,88111.91
2023-01-15T01:00:59.134Z,88115.31
2023-01-15T01:03:44.217Z,88127.13
2023-01-15T01:06:28.931Z,88117.53
2023-01-15T01:09:13.708Z,88117.50
2023-01-15T01:11:58.436Z,88118.13
2023-01-15T01:14:43.078Z,88112.13
2023-01-15T01:17:28.023Z,88100.63
2023-01-15T01:20:12.647Z,88105.97
2023-01-15T01:22:57.427Z,88120.09
2023-01-15T01:25:42.155Z,88117.44
2023-01-15T01:28:26.915Z,88117.84
2023-01-15T01:31:11.777Z,88122.16
2023-01-15T01:33:56.416Z,88114.75
2023-01-15T01:36:41.155Z,88108.06
2023-01-15T01:39:25.953Z,88103.56
2023-01-15T01:42:10.716Z,88106.53
2023-01-15T01:44:55.396Z,88106.41
2023-01-15T01:47:40.024Z,88098.78
2023-01-15T01:50:24.741Z,88098.88
2023-01-15T01:53:09.452Z,88103.56
2023-01-15T01:55:54.290Z,88099.63
2023-01-15T01:58:39.038Z,88093.94
2023-01-15T02:01:24.008Z,88094.78
2023-01-15T02:04:09.179Z,88078.25
2023-01-15T02:06:53.989Z,88075.91
2023-01-15T02:09:38.667Z,88065.34
2023-01-15T02:12:23.436Z,88059.28
2023-01-15T02:15:08.258Z,88057.88
2023-01-15T02:17:53.146Z,88053.88
2023-01-15T02:20:37.927Z,88046.66
2023-01-15T02:23:22.869Z,88040.25
2023-01-15T02:26:07.714Z,88029.72
2023-01-15T02:28:52.431Z,88023.28
2023-01-15T02:31:37.319Z,88017.06
2023-01-15T02:34:21.980Z,88008.94
2023-01-15T02:37:06.904Z,88002.16
2023-01-15T02:39:51.640Z,88001.59
2023-01-15T02:42:36.380Z,88000.91
2023-01-15T02:45:21.013Z,87997.50
2023-01-15T02:48:05.895Z,87996.06
2023-01-15T02:50:50.651Z,87995.38
2023-01-15T02:53:35.305Z,87990.97
2023-01-15T02:56:20.029Z,87986.25
2023-01-15T02:59:04.825Z,87986.63
2023-01-15T03:01:49.701Z,87990.94
2023-01-15T03:04:34.938Z,87992.13
2023-01-15T03:07:19.897Z,87995.31
2023-01-15T03:10:04.710Z,87993.03
2023-01-15T03:12:49.459Z,87994.22
2023-01-15T03:15:34.148Z,87997.69
2023-01-15T03:18:18.945Z,87995.63
2023-01-15T03:21:03.705Z,87987.44
2023-01-15T03:23:48.488Z,87984.22
2023-01-15T03:26:33.311Z,87990.09
2023-01-15T03:29:18.052Z,87994.41
2023-01-15T03:32:03.010Z,87992.00
2023-01-15T03:34:47.646Z,87978.13
2023-01-15T03:37:32.485Z,87986.16
2023-01-15T03:40:17.280Z,87973.88
2023-01-15T03:43:01.964Z,87971.41
2023-01-15T03:45:46.757Z,87980.25
2023-01-15T03:48:31.619Z,87986.53
2023-01-15T03:51:16.447Z,87987.59
2023-01-15T03:54:01.261Z,87971.84
2023-01-15T03:56:46.142Z,87963.72
2023-01-15T03:59:30.809Z,87971.91
2023-01-15T04:02:15.643Z,87966.56
2023-01-15T04:05:00.661Z,87961.03
2023-01-15T04:07:45.454Z,87955.00
2023-01-15T04:10:30.239Z,87952.06
2023-01-15T04:13:14.914Z,87951.88
2023-01-15T04:15:59.607Z,87950.19
2023-01-15T04:18:44.403Z,87951.06
2023-01-15T04:21:29.205Z,87945.38
2023-01-15T04:24:14.017Z,87949.88
2023-01-15T04:26:58.764Z,87946.69
2023-01-15T04:29:43.449Z,87953.34
2023-01-15T04:32:28.213Z,87955.38
2023-01-15T04:35:12.800Z,87960.13
2023-01-15T04:37:57.698Z,87959.97
2023-01-15T04:40:42.400Z,87954.28
2023-01-15T04:43:27.190Z,87951.88
2023-01-15T04:46:11.973Z,87948.47
2023-01-15T04:48:57.196Z,87952.94
2023-01-15T04:51:41.968Z,87946.31
2023-01-15T04:54:26.673Z,87953.97
2023-01-15T04:57:11.300Z,87955.00
2023-01-15T04:59:56.024Z,87951.75
2023-01-15T05:02:40.814Z,87950.72
2023-01-15T05:05:25.456Z,87947.03
2023-01-15T05:08:10.318Z,87943.44
2023-01-15T05:10:54.985Z,87941.91
2023-01-15T05:13:40.034Z,87935.78
2023-01-15T05:16:24.764Z,87935.41
2023-01-15T05:19:09.643Z,87927.28
2023-01-15T05:21:54.394Z,87925.19
2023-01-15T05:24:39.015Z,87930.91
2023-01-15T05:27:23.607Z,87934.50
2023-01-15T05:30:08.242Z,87927.22
2023-01-15T05:32:53.076Z,87938.28
2023-01-15T05:35:37.744Z,87933.06
2023-01-15T05:38:22.652Z,87924.59
2023-01-15T05:41:07.459Z,87933.06
2023-01-15T05:43:52.357Z,87944.84
2023-01-15T05:46:37.142Z,87928.72
2023-01-15T05:49:21.977Z,87924.59
2023-01-15T05:52:06.826Z,87926.25
2023-01-15T05:54:51.461Z,87918.41
2023-01-15T05:57:36.244Z,87924.59
2023-01-15T06:00:20.986Z,87922.72
2023-01-15T06:03:05.843Z,87917.66
2023-01-15T06:05:50.379Z,87915.03
2023-01-15T06:08:35.106Z,87918.25
2023-01-15T06:11:19.960Z,87913.69
2023-01-15T06:14:04.825Z,87928.56
2023-01-15T06:16:49.481Z,87928.25
2023-01-15T06:19:34.216Z,87914.59
2023-01-15T06:22:18.948Z,87899.53
2023-01-15T06:25:03.685Z,87906.06
2023-01-15T06:27:48.598Z,87906.06
2023-01-15T06:30:33.247Z,87907.50
2023-01-15T06:33:18.065Z,87908.78
2023-01-15T06:36:02.853Z,87901.09
2023-01-15T06:38:47.631Z,87883.34
2023-01-15T06:41:32.403Z,87896.66
2023-01-15T06:44:17.223Z,87906.69
2023-01-15T06:47:01.866Z,87878.38
2023-01-15T06:49:46.544Z,87879.34
2023-01-15T06:52:31.363Z,87872.56
2023-01-15T06:55:16.130Z,87869.44
2023-01-15T06:58:00.872Z,87864.75
2023-01-15T07:00:45.723Z,87859.25
2023-01-15T07:03:30.687Z,87861.19
2023-01-15T07:06:15.844Z,87836.81
2023-01-15T07:09:00.565Z,87848.91
2023-01-15T07:11:45.261Z,87845.25
2023-01-15T07:14:30.088Z,87852.91
2023-01-15T07:17:14.783Z,87841.13
2023-01-15T07:19:59.564Z,87841.97
2023-01-15T07:22:44.305Z,87848.19
2023-01-15T07:25:29.095Z,87847.28
2023-01-15T07:28:14.037Z,87832.19
2023-01-15T07:30:58.756Z,87817.56
2023-01-15T07:33:43.653Z,87824.38
2023-01-15T07:36:28.326Z,87809.88
2023-01-15T07:39:13.105Z,87792.97
2023-01-15T07:41:57.757Z,87802.41
2023-01-15T07:44:42.515Z,87782.94
2023-01-15T07:47:27.174Z,87763.03
2023-01-15T07:50:12.004Z,87781.69
2023-01-15T07:52:56.804Z,87777.94
2023-01-15T07:55:41.559Z,87772.97
2023-01-15T07:58:26.435Z,87782.84
2023-01-15T08:01:11.301Z,87765.84
2023-01-15T08:03:56.555Z,87773.25
2023-01-15T08:06:41.181Z,87781.13
2023-01-15T08:09:25.793Z,87788.19
2023-01-15T08:12:10.475Z,87800.78
2023-01-15T08:14:55.187Z,87798.47
2023-01-15T08:17:39.947Z,87786.56
2023-01-15T08:20:24.748Z,87788.88
2023-01-15T08:23:09.575Z,87768.34
2023-01-15T08:25:54.236Z,87762.81
2023-01-15T08:28:39.063Z,87753.97
2023-01-15T08:31:23.749Z,87754.19
2023-01-15T08:34:08.524Z,87752.63
2023-01-15T08:36:53.225Z,87737.44
2023-01-15T08:39:38.073Z,87721.34
2023-01-15T08:42:22.841Z,87731.44
2023-01-15T08:45:07.636Z,87729.72
2023-01-15T08:47:52.395Z,87701.16
2023-01-15T08:50:37.169Z,87711.88
2023-01-15T08:53:22.066Z,87702.50
2023-01-15T08:56:06.804Z,87709.41
2023-01-15T08:58:51.723Z,87714.09
2023-01-15T09:01:36.494Z,87710.47
2023-01-15T09:04:22.493Z,87717.38
2023-01-15T09:07:07.851Z,87717.84
2023-01-15T09:09:52.622Z,87717.84
2023-01-15T09:12:37.345Z,87715.59
2023-01-15T09:15:22.152Z,87707.19
2023-01-15T09:18:07.092Z,87712.75
2023-01-15T09:20:51.824Z,87717.97
2023-01-15T09:23:36.736Z,87720.09
2023-01-15T09:26:21.338Z,87729.28
2023-01-15T09:29:06.098Z,87710.38
2023-01-15T09:31:50.730Z,87710.72
2023-01-15T09:34:35.629Z,87719.22
2023-01-15T09:37:20.346Z,87717.50
2023-01-15T09:40:05.169Z,87703.94
2023-01-15T09:42:49.877Z,87687.13
2023-01-15T09:45:34.718Z,87687.53
2023-01-15T09:48:19.431Z,87705.34
2023-01-15T09:51:04.170Z,87704.81
2023-01-15T09:53:48.997Z,87716.81
2023-01-15T09:56:33.553Z,87702.91
2023-01-15T09:59:18.538Z,87691.16
2023-01-15T10:02:03.566Z,87684.56
2023-01-15T10:04:48.423Z,87670.16
2023-01-15T10:07:33.125Z,87687.16
2023-01-15T10:10:18.368Z,87698.59
2023-01-15T10:13:03.375Z,87691.66
2023-01-15T10:15:48.077Z,87702.06
2023-01-15T10:18:32.843Z,87698.41
2023-01-15T10:21:17.566Z,87698.22
2023-01-15T10:24:02.680Z,87710.34
2023-01-15T10:26:47.368Z,87696.84
2023-01-15T10:29:32.156Z,87706.00
2023-01-15T10:32:17.199Z,87694.38
2023-01-15T10:35:02.447Z,87709.78
2023-01-15T10:37:47.387Z,87699.19
2023-01-15T10:40:32.115Z,87698.25
2023-01-15T10:43:17.048Z,87694.88
2023-01-15T10:46:01.945Z,87697.44
2023-01-15T10:48:46.767Z,87700.53
2023-01-15T10:51:31.495Z,87696.19
2023-01-15T10:54:16.469Z,87699.75
2023-01-15T10:57:01.133Z,87701.16
2023-01-15T10:59:45.974Z,87680.09
2023-01-15T11:02:30.735Z,87681.63
2023-01-15T11:05:15.913Z,87682.38
2023-01-15T11:08:34.286Z,87678.00
2023-01-15T11:11:05.511Z,87688.66
2023-01-15T11:13:50.428Z,87685.09
2023-01-15T11:16:35.232Z,87676.88
2023-01-15T11:19:21.090Z,87682.28
2023-01-15T11:22:06.261Z,87704.66
2023-01-15T11:24:51.039Z,87714.00
2023-01-15T11:27:35.847Z,87729.06
2023-01-15T11:30:20.566Z,87740.81
2023-01-15T11:33:05.309Z,87750.66
2023-01-15T11:35:50.031Z,87747.59
2023-01-15T11:38:34.831Z,87783.03
2023-01-15T11:41:19.535Z,87768.13
2023-01-15T11:44:04.421Z,87788.41
2023-01-15T11:46:49.167Z,87790.16
2023-01-15T11:49:34.054Z,87796.59
2023-01-15T11:52:18.924Z,87822.41
2023-01-15T11:55:03.560Z,87835.03
2023-01-15T11:57:48.317Z,87818.09
2023-01-15T12:00:32.958Z,87829.03
2023-01-15T12:03:17.892Z,87826.66
2023-01-15T12:06:02.606Z,87855.97
2023-01-15T12:08:47.298Z,87844.81
2023-01-15T12:11:32.012Z,87853.50
2023-01-15T12:14:16.863Z,87858.38
2023-01-15T12:17:01.769Z,87840.25
2023-01-15T12:19:46.405Z,87853.91
2023-01-15T12:22:31.201Z,87850.00
2023-01-15T12:25:15.928Z,87847.22
2023-01-15T12:28:00.715Z,87857.50
2023-01-15T12:30:45.383Z,87859.69
2023-01-15T12:33:30.126Z,87860.00
2023-01-15T12:36:14.825Z,87863.88
2023-01-15T12:38:59.591Z,87868.22
2023-01-15T12:41:44.290Z,87867.53
2023-01-15T12:44:28.991Z,87847.34
2023-01-15T12:47:13.894Z,87859.47
2023-01-15T12:49:58.625Z,87849.72
2023-01-15T12:52:43.353Z,87832.69
2023-01-15T12:55:27.958Z,87837.38
2023-01-15T12:58:12.722Z,87836.31
2023-01-15T13:00:57.583Z,87849.94
2023-01-15T13:03:42.268Z,87860.28
2023-01-15T13:06:26.929Z,87857.72
2023-01-15T13:09:11.798Z,87848.16
2023-01-15T13:11:56.600Z,87848.25
2023-01-15T13:14:41.386Z,87854.50
2023-01-15T13:17:26.144Z,87856.03
2023-01-15T13:20:10.910Z,87863.78
2023-01-15T13:22:55.711Z,87858.69
2023-01-15T13:25:40.423Z,87864.66
2023-01-15T13:28:25.158Z,87866.47
2023-01-15T13:31:09.837Z,87862.59
2023-01-15T13:33:54.625Z,87869.97
2023-01-15T13:36:39.381Z,87873.22
2023-01-15T13:39:24.085Z,87886.16
2023-01-15T13:42:08.775Z,87894.31
2023-01-15T13:44:53.579Z,87881.84
2023-01-15T13:47:38.200Z,87897.69
2023-01-15T13:50:22.861Z,87902.19
2023-01-15T13:53:07.688Z,87894.72
2023-01-15T13:55:52.453Z,87907.47
2023-01-15T13:58:37.202Z,87897.22
2023-01-15T14:01:21.928Z,87890.84
2023-01-15T14:04:06.808Z,87896.66
2023-01-15T14:06:51.499Z,87902.97
2023-01-15T14:09:36.346Z,87914.63
2023-01-15T14:12:21.220Z,87915.78
2023-01-15T14:15:05.912Z,87916.91
2023-01-15T14:17:50.734Z,87920.41
2023-01-15T14:20:35.507Z,87939.50
2023-01-15T14:23:20.473Z,87945.69
2023-01-15T14:26:05.117Z,87941.22
2023-01-15T14:28:49.884Z,87953.84
2023-01-15T14:31:34.752Z,87951.34
2023-01-15T14:34:19.416Z,87962.91
2023-01-15T14:37:04.196Z,87958.44
2023-01-15T14:39:48.900Z,87961.09
2023-01-15T14:42:33.531Z,87969.69
2023-01-15T14:45:18.212Z,87963.41
2023-01-15T14:48:02.911Z,87979.03
2023-01-15T14:50:47.581Z,87974.25
2023-01-15T14:53:32.286Z,87977.53
2023-01-15T14:56:17.006Z,87990.28
2023-01-15T14:59:02.007Z,87986.50
2023-01-15T15:01:46.749Z,87995.53
2023-01-15T15:04:32.092Z,87996.00
2023-01-15T15:07:16.800Z,88007.75
2023-01-15T15:10:01.600Z,88011.31
2023-01-15T15:12:46.280Z,88014.44
2023-01-15T15:15:31.051Z,88019.28
2023-01-15T15:18:15.757Z,88022.59
2023-01-15T15:21:00.550Z,88021.53
2023-01-15T15:23:45.259Z,88026.00
2023-01-15T15:26:29.930Z,88027.84
2023-01-15T15:29:14.767Z,88026.28
2023-01-15T15:31:59.399Z,88035.38
2023-01-15T15:34:44.084Z,88026.97
2023-01-15T15:37:28.894Z,88029.16
2023-01-15T15:40:13.601Z,88016.41
2023-01-15T15:42:58.417Z,88014.00
2023-01-15T15:45:43.253Z,88004.91
2023-01-15T15:48:28.310Z,88009.75
2023-01-15T15:51:13.123Z,88013.84
2023-01-15T15:53:57.870Z,88010.66
2023-01-15T15:56:42.638Z,88003.81
2023-01-15T15:59:27.709Z,87995.22
2023-01-15T16:02:12.598Z,87999.56
2023-01-15T16:04:57.915Z,88001.78
2023-01-15T16:07:42.477Z,87999.13
2023-01-15T16:10:27.257Z,88001.56
2023-01-15T16:13:11.834Z,88000.50
2023-01-15T16:15:56.592Z,87998.66
2023-01-15T16:18:41.276Z,87994.00
2023-01-15T16:21:26.028Z,87991.97
2023-01-15T16:24:10.885Z,87993.69
2023-01-15T16:26:55.572Z,87989.50
2023-01-15T16:29:40.422Z,87988.53
2023-01-15T16:32:25.091Z,88004.00
2023-01-15T16:35:09.897Z,88006.84
2023-01-15T16:37:54.618Z,88002.81
2023-01-15T16:40:39.328Z,88004.13
2023-01-15T16:43:24.104Z,87998.31
2023-01-15T16:46:09.000Z,88006.09
2023-01-15T16:48:53.664Z,87999.41
2023-01-15T16:51:38.399Z,87995.09
2023-01-15T16:54:23.319Z,87998.69
2023-01-15T16:57:07.969Z,87999.91
2023-01-15T16:59:52.772Z,88003.44
2023-01-15T17:02:37.586Z,88000.84
2023-01-15T17:05:22.410Z,88004.13
2023-01-15T17:08:07.207Z,87997.06
2023-01-15T17:10:52.100Z,87996.31
2023-01-15T17:13:36.755Z,88001.53
2023-01-15T17:16:21.482Z,88009.13
2023-01-15T17:19:06.427Z,88013.78
2023-01-15T17:21:51.119Z,88009.47
2023-01-15T17:24:35.933Z,88005.88
2023-01-15T17:27:20.563Z,88003.91
2023-01-15T17:30:05.383Z,88012.44
2023-01-15T17:32:50.010Z,88006.56
2023-01-15T17:35:34.608Z,88001.16
2023-01-15T17:38:19.265Z,88006.78
2023-01-15T17:41:04.009Z,88004.28
2023-01-15T17:43:48.797Z,88008.56
2023-01-15T17:46:33.741Z,88012.16
2023-01-15T17:49:18.899Z,88010.41
2023-01-15T17:52:03.655Z,88005.47
2023-01-15T17:54:48.405Z,88004.44
2023-01-15T17:57:33.180Z,88006.72
2023-01-15T18:00:17.982Z,87997.78
2023-01-15T18:03:02.608Z,87999.00
2023-01-15T18:05:47.388Z,87998.31
2023-01-15T18:08:32.148Z,87996.00
2023-01-15T18:11:16.970Z,88002.09
2023-01-15T18:14:01.747Z,87996.69
2023-01-15T18:16:46.655Z,88007.28
2023-01-15T18:19:31.480Z,88002.41
2023-01-15T18:22:16.303Z,87993.53
2023-01-15T18:25:01.209Z,87995.94
2023-01-15T18:27:46.648Z,87991.03
2023-01-15T18:30:31.453Z,87989.41
2023-01-15T18:33:16.302Z,87977.72
2023-01-15T18:36:01.174Z,87977.03
2023-01-15T18:38:46.761Z,87977.47
2023-01-15T18:41:32.485Z,87978.91
2023-01-15T18:44:17.561Z,87971.22
2023-01-15T18:47:02.438Z,87967.50
2023-01-15T18:49:47.317Z,87970.84
2023-01-15T18:52:31.958Z,87958.69
2023-01-15T18:55:16.753Z,87956.81
2023-01-15T18:58:01.989Z,87961.50
2023-01-15T19:00:46.834Z,87953.34
2023-01-15T19:03:31.481Z,87952.22
2023-01-15T19:06:16.278Z,87952.00
2023-01-15T19:09:01.015Z,87950.34
2023-01-15T19:11:45.733Z,87952.91
2023-01-15T19:14:30.530Z,87948.97
2023-01-15T19:17:15.104Z,87946.44
2023-01-15T19:19:59.932Z,87942.72
2023-01-15T19:22:44.624Z,87943.88
2023-01-15T19:25:29.350Z,87937.13
2023-01-15T19:28:13.948Z,87933.91
2023-01-15T19:30:58.717Z,87935.34
2023-01-15T19:33:43.345Z,87938.88
2023-01-15T19:36:28.238Z,87927.69
2023-01-15T19:39:12.902Z,87918.59
2023-01-15T19:41:57.617Z,87919.75
2023-01-15T19:44:42.320Z,87912.91
2023-01-15T19:47:27.139Z,87908.25
2023-01-15T19:50:11.982Z,87898.66
2023-01-15T19:52:56.712Z,87893.03
2023-01-15T19:55:41.549Z,87890.44
2023-01-15T19:58:26.260Z,87894.66
2023-01-15T20:01:11.395Z,87885.81
2023-01-15T20:03:56.493Z,87877.84
2023-01-15T20:06:41.249Z,87870.41
2023-01-15T20:09:26.061Z,87870.66
2023-01-15T20:12:10.691Z,87860.84
2023-01-15T20:14:55.650Z,87862.44
2023-01-15T20:17:40.323Z,87861.41
2023-01-15T20:20:25.134Z,87858.09
2023-01-15T20:23:09.896Z,87865.34
2023-01-15T20:25:54.757Z,87858.78
2023-01-15T20:28:39.708Z,87853.47
2023-01-15T20:31:24.550Z,87850.63
2023-01-15T20:34:09.813Z,87846.44
2023-01-15T20:36:54.711Z,87841.31
2023-01-15T20:39:39.663Z,87838.16
2023-01-15T20:42:24.439Z,87831.81
2023-01-15T20:45:09.273Z,87822.38
2023-01-15T20:47:54.074Z,87822.06
2023-01-15T20:50:38.863Z,87810.16
2023-01-15T20:53:23.601Z,87803.91
2023-01-15T20:56:08.520Z,87801.88
2023-01-15T20:58:53.124Z,87790.81
2023-01-15T21:01:38.050Z,87787.91
2023-01-15T21:04:23.330Z,87782.91
2023-01-15T21:07:08.174Z,87778.03
2023-01-15T21:09:52.842Z,87767.78
2023-01-15T21:12:37.569Z,87770.00
2023-01-15T21:15:22.341Z,87759.34
2023-01-15T21:18:07.050Z,87761.75
2023-01-15T21:20:51.991Z,87757.09
2023-01-15T21:23:36.689Z,87737.53
2023-01-15T21:26:21.617Z,87742.69
2023-01-15T21:29:06.356Z,87732.69
2023-01-15T21:31:51.139Z,87735.25
2023-01-15T21:34:36.035Z,87730.78
2023-01-15T21:37:20.851Z,87722.44
2023-01-15T21:40:05.555Z,87715.44
2023-01-15T21:42:50.268Z,87710.53
2023-01-15T21:45:35.159Z,87717.53
2023-01-15T21:48:19.760Z,87716.25
2023-01-15T21:51:04.591Z,87717.44
2023-01-15T21:53:49.386Z,87709.59
2023-01-15T21:56:34.773Z,87704.22
2023-01-15T21:59:21.815Z,87708.59
2023-01-15T22:02:06.931Z,87703.25
2023-01-15T22:04:51.886Z,87707.47
2023-01-15T22:07:36.637Z,87696.13
2023-01-15T22:10:21.518Z,87706.63
2023-01-15T22:13:06.232Z,87697.53
2023-01-15T22:15:51.003Z,87690.53
2023-01-15T22:18:35.835Z,87682.84
2023-01-15T22:21:20.539Z,87682.41
2023-01-15T22:24:05.448Z,87677.97
2023-01-15T22:26:50.192Z,87679.13
2023-01-15T22:29:35.140Z,87662.84
2023-01-15T22:32:19.879Z,87664.00
2023-01-15T22:35:04.642Z,87666.09
2023-01-15T22:37:49.278Z,87660.50
2023-01-15T22:40:34.063Z,87656.53
2023-01-15T22:43:18.670Z,87647.88
2023-01-15T22:46:03.554Z,87653.25
2023-01-15T22:48:48.242Z,87656.47
2023-01-15T22:51:33.017Z,87657.16
2023-01-15T22:54:18.787Z,87647.19
2023-01-15T22:57:04.025Z,87642.31
2023-01-15T22:59:49.088Z,87633.66
2023-01-15T23:02:33.767Z,87636.47
2023-01-15T23:05:18.534Z,87644.44
2023-01-15T23:08:03.401Z,87637.00
2023-01-15T23:10:48.184Z,87637.25
2023-01-15T23:13:32.821Z,87636.75
2023-01-15T23:16:17.765Z,87629.75
2023-01-15T23:19:02.559Z,87621.16
2023-01-15T23:21:47.255Z,87616.94
2023-01-15T23:24:31.881Z,87610.88
2023-01-15T23:27:16.605Z,87604.09
2023-01-15T23:30:01.388Z,87595.94
2023-01-15T23:32:46.025Z,87597.06
2023-01-15T23:35:30.929Z,87573.31
2023-01-15T23:38:15.547Z,87567.28
2023-01-15T23:41:00.326Z,87562.59
2023-01-15T23:43:45.024Z,87572.78
2023-01-15T23:46:29.820Z,87566.97
2023-01-15T23:49:14.530Z,87560.03
2023-01-15T23:51:59.319Z,87557.25
2023-01-15T23:54:44.297Z,87545.63
2023-01-15T23:57:29.050Z,87543.50
